KIAH/IAH METAR and TAF weather

Enter ICAO airport designator
Station Type Date Time Source
KIAH METAR 2018/12/10 13:53 UTC NOAA

KIAH 101353Z 29004KT 10SM CLR 05/03 A3039 RMK AO2 SLP292 T00500033


Station Type Date Time Source
KIAH Decoded METAR 2018/12/10 13:53 UTC NOAA

HOUSTON INTERCONTINENTAL, TX, United States (KIAH) 30-00N 095-22W 36M
Dec 10, 2018 - 08:53 AM EST / 2018.12.10 1353 UTC
Wind: from the WNW (290 degrees) at 5 MPH (4 KT):0
Visibility: 10 mile(s):0
Sky conditions: clear
Temperature: 41.0 F (5.0 C)
Dew Point: 37.9 F (3.3 C)
Relative Humidity: 88%
Pressure (altimeter): 30.39 in. Hg (1029 hPa)
ob: KIAH 101353Z 29004KT 10SM CLR 05/03 A3039 RMK AO2 SLP292 T00500033
cycle: 14

Station Type Date Time Source
KIAH TAF 2018/12/10 12:24 UTC NOAA

TAF KIAH 101120Z 1012/1118 33006KT P6SM SKC


Example: see airport list